createdAt,value
2023-05-10T00:00:16.409Z,3.019474
2023-05-10T00:05:16.320Z,2.889543
2023-05-10T00:10:16.333Z,2.783769
2023-05-10T00:15:16.072Z,2.674336
2023-05-10T00:20:16.418Z,2.564573
2023-05-10T00:25:16.003Z,2.466038
2023-05-10T00:30:16.428Z,2.377557
2023-05-10T00:35:15.964Z,2.284409
2023-05-10T00:40:16.090Z,2.190222
2023-05-10T00:45:16.058Z,2.097336
2023-05-10T00:50:16.779Z,2.005886
2023-05-10T00:55:16.065Z,1.919906
2023-05-10T01:00:16.315Z,1.834198
2023-05-10T01:05:15.772Z,1.752069
2023-05-10T01:10:16.452Z,1.670063
2023-05-10T01:15:17.368Z,1.584826
2023-05-10T01:20:16.527Z,1.499054
2023-05-10T01:25:16.135Z,1.412180
2023-05-10T01:30:16.336Z,1.331110
2023-05-10T01:35:16.546Z,1.245470
2023-05-10T01:40:16.480Z,1.159609
2023-05-10T01:45:16.013Z,1.073393
2023-05-10T01:50:15.921Z,0.991398
2023-05-10T01:55:15.871Z,0.916218
2023-05-10T02:00:16.009Z,0.841288
2023-05-10T02:05:16.115Z,0.770045
2023-05-10T02:10:16.766Z,0.703365
2023-05-10T02:15:16.171Z,0.640763
2023-05-10T02:20:16.608Z,0.578501
2023-05-10T02:25:16.342Z,0.520299
2023-05-10T02:30:16.758Z,0.466712
2023-05-10T02:35:15.865Z,0.413410
2023-05-10T02:40:17.324Z,0.366017
2023-05-10T02:45:16.772Z,0.319846
2023-05-10T02:50:16.853Z,0.259296
2023-05-10T02:55:15.854Z,0.237771
2023-05-10T03:00:16.227Z,0.172450
2023-05-10T03:05:15.899Z,0.138662
2023-05-10T03:10:17.387Z,0.123737
2023-05-10T03:15:16.279Z,0.104367
2023-05-10T03:20:17.415Z,0.091893
2023-05-10T03:25:15.749Z,0.074712
2023-05-10T03:30:16.513Z,0.058384
2023-05-10T03:35:15.844Z,0.044325
2023-05-10T03:40:16.232Z,0.038864
2023-05-10T03:45:16.823Z,0.036015
2023-05-10T03:50:16.326Z,0.032538
2023-05-10T03:55:15.916Z,0.031208
2023-05-10T04:00:16.431Z,0.029213
2023-05-10T04:05:16.600Z,0.027816
2023-05-10T04:10:16.559Z,0.027930
2023-05-10T04:15:16.830Z,0.027474
2023-05-10T04:20:16.329Z,0.027745
2023-05-10T04:25:15.895Z,0.028016
2023-05-10T04:30:16.518Z,0.027422
2023-05-10T04:35:16.022Z,0.027811
2023-05-10T04:40:16.327Z,0.028103
2023-05-10T04:45:15.812Z,0.027876
2023-05-10T04:50:16.663Z,0.029758
2023-05-10T04:55:15.851Z,0.028808
2023-05-10T05:00:17.956Z,0.028649
2023-05-10T05:05:16.696Z,0.027384
2023-05-10T05:10:16.748Z,0.027474
2023-05-10T05:15:16.288Z,0.027422
2023-05-10T05:20:17.267Z,0.027720
2023-05-10T05:25:15.999Z,0.028065
2023-05-10T05:30:16.534Z,0.028131
2023-05-10T05:35:16.059Z,0.028264
2023-05-10T05:40:15.739Z,0.027176
2023-05-10T05:45:17.087Z,0.027790
2023-05-10T05:50:16.260Z,0.027286
2023-05-10T05:55:16.109Z,0.026713
2023-05-10T06:00:15.980Z,0.027629
2023-05-10T06:05:16.486Z,0.027785
2023-05-10T06:10:15.871Z,0.027435
2023-05-10T06:15:17.450Z,0.027198
2023-05-10T06:20:15.715Z,0.028079
2023-05-10T06:25:15.900Z,0.028124
2023-05-10T06:30:16.812Z,0.026713
2023-05-10T06:35:16.507Z,0.028716
2023-05-10T06:40:16.193Z,0.027023
2023-05-10T06:45:16.529Z,0.027720
2023-05-10T06:50:16.139Z,0.027241
2023-05-10T06:55:16.403Z,0.027032
2023-05-10T07:00:16.534Z,0.026824
2023-05-10T07:05:16.592Z,0.025833
2023-05-10T07:10:17.209Z,0.026759
2023-05-10T07:15:16.576Z,0.026441
2023-05-10T07:20:16.165Z,0.026525
2023-05-10T07:25:16.445Z,0.026959
2023-05-10T07:30:16.383Z,0.026905
2023-05-10T07:35:16.163Z,0.026076
2023-05-10T07:40:15.877Z,0.025486
2023-05-10T07:45:17.666Z,0.026234
2023-05-10T07:50:15.817Z,0.026699
2023-05-10T07:55:17.294Z,0.026010
2023-05-10T08:00:16.766Z,0.027030
2023-05-10T08:05:16.365Z,0.027145
2023-05-10T08:10:16.286Z,0.026547
2023-05-10T08:15:17.585Z,0.027423
2023-05-10T08:20:16.143Z,0.026347
2023-05-10T08:25:16.263Z,0.027282
2023-05-10T08:30:16.983Z,0.026340
2023-05-10T08:35:16.110Z,0.026397
2023-05-10T08:40:16.079Z,0.026845
2023-05-10T08:45:17.383Z,0.027021
2023-05-10T08:50:16.104Z,0.026870
2023-05-10T08:55:16.414Z,0.027771
2023-05-10T09:00:16.399Z,0.028433
2023-05-10T09:05:16.472Z,0.026932
2023-05-10T09:10:15.891Z,0.026278
2023-05-10T09:15:16.497Z,0.028114
2023-05-10T09:20:15.936Z,0.026194
2023-05-10T09:25:16.247Z,0.027506
2023-05-10T09:30:16.401Z,0.028808
2023-05-10T09:35:16.352Z,0.027405
2023-05-10T09:40:15.846Z,0.028674
2023-05-10T09:45:16.530Z,0.027845
2023-05-10T09:50:16.001Z,0.027930
2023-05-10T09:55:16.652Z,0.028717
2023-05-10T10:00:16.347Z,0.028466
2023-05-10T10:05:16.249Z,0.028582
2023-05-10T10:10:15.795Z,0.028218
2023-05-10T10:15:17.018Z,0.028239
2023-05-10T10:20:17.647Z,0.028670
2023-05-10T10:25:16.090Z,0.028037
2023-05-10T10:30:16.764Z,0.028261
2023-05-10T10:35:16.279Z,0.028197
2023-05-10T10:40:16.568Z,0.026039
2023-05-10T10:45:16.829Z,0.026363
2023-05-10T10:50:16.560Z,0.026923
2023-05-10T10:55:16.240Z,0.026748
2023-05-10T11:00:16.274Z,0.027065
2023-05-10T11:05:16.271Z,0.027381
2023-05-10T11:10:16.126Z,0.026112
2023-05-10T11:15:16.856Z,0.027519
2023-05-10T11:20:16.470Z,0.027320
2023-05-10T11:25:16.873Z,0.026626
2023-05-10T11:30:17.583Z,0.027506
2023-05-10T11:35:15.919Z,0.027139
2023-05-10T11:40:17.088Z,0.027442
2023-05-10T11:45:15.747Z,0.027049
2023-05-10T11:50:16.061Z,0.026519
2023-05-10T11:55:16.863Z,0.026852
2023-05-10T12:00:17.715Z,0.026932
2023-05-10T12:05:16.663Z,0.027930
2023-05-10T12:10:16.430Z,0.027474
2023-05-10T12:15:16.039Z,0.028716
2023-05-10T12:20:16.519Z,0.029754
2023-05-10T12:25:16.097Z,0.030700
2023-05-10T12:30:16.654Z,0.034242
2023-05-10T12:35:16.874Z,0.037535
2023-05-10T12:40:16.682Z,0.040733
2023-05-10T12:45:17.076Z,0.051734
2023-05-10T12:50:16.230Z,0.065396
2023-05-10T12:55:16.928Z,0.081338
2023-05-10T13:00:16.743Z,0.094801
2023-05-10T13:05:16.697Z,0.107827
2023-05-10T13:10:16.101Z,0.125879
2023-05-10T13:15:17.042Z,0.138573
2023-05-10T13:20:16.968Z,0.162692
2023-05-10T13:25:16.641Z,0.204287
2023-05-10T13:30:16.151Z,0.237551
2023-05-10T13:35:15.865Z,0.266648
2023-05-10T13:40:16.564Z,0.298621
2023-05-10T13:45:15.992Z,0.335048
2023-05-10T13:50:15.976Z,0.370809
2023-05-10T13:55:17.203Z,0.409660
2023-05-10T14:00:17.051Z,0.449031
2023-05-10T14:05:17.119Z,0.497337
2023-05-10T14:10:16.309Z,0.543293
2023-05-10T14:15:16.836Z,0.597874
2023-05-10T14:20:16.861Z,0.633724
2023-05-10T14:25:16.107Z,0.641353
2023-05-10T14:30:16.091Z,0.768388
2023-05-10T14:35:19.161Z,0.828375
2023-05-10T14:40:16.863Z,0.894837
2023-05-10T14:45:16.128Z,0.967212
2023-05-10T14:50:24.973Z,1.040124
2023-05-10T14:55:16.303Z,1.111509
2023-05-10T15:00:16.253Z,1.183173
2023-05-10T15:05:15.857Z,1.263197
2023-05-10T15:10:15.763Z,1.339095
2023-05-10T15:15:17.133Z,1.415960
2023-05-10T15:20:17.403Z,1.494994
2023-05-10T15:25:16.618Z,1.576795
2023-05-10T15:30:17.594Z,1.661653
2023-05-10T15:35:16.440Z,1.746661
2023-05-10T15:40:17.119Z,1.831290
2023-05-10T15:45:16.714Z,1.916157
2023-05-10T15:50:15.780Z,2.000377
2023-05-10T15:55:18.404Z,2.086185
2023-05-10T16:00:16.018Z,2.173594
2023-05-10T16:05:16.298Z,2.261141
2023-05-10T16:10:16.455Z,2.348277
2023-05-10T16:15:15.800Z,2.436959
2023-05-10T16:20:16.170Z,2.519366
2023-05-10T16:25:17.023Z,2.606586
2023-05-10T16:30:16.083Z,2.695859
2023-05-10T16:35:16.054Z,2.785030
2023-05-10T16:40:16.990Z,2.868472
2023-05-10T16:45:17.219Z,2.945070
2023-05-10T16:50:16.319Z,3.028756
2023-05-10T16:55:15.921Z,3.109550
2023-05-10T17:00:15.988Z,3.187354
2023-05-10T17:05:16.760Z,3.273449
2023-05-10T17:10:15.839Z,3.350695
2023-05-10T17:15:16.886Z,3.430710
2023-05-10T17:20:16.327Z,3.516231
2023-05-10T17:25:16.729Z,3.589642
2023-05-10T17:30:16.562Z,3.659434
2023-05-10T17:35:16.673Z,3.730757
2023-05-10T17:40:16.932Z,3.811943
2023-05-10T17:45:17.130Z,3.884827
2023-05-10T17:50:16.793Z,3.957516
2023-05-10T17:55:16.305Z,4.024007
2023-05-10T18:00:16.586Z,4.096193
2023-05-10T18:05:16.284Z,4.162659
2023-05-10T18:10:16.108Z,4.228188
2023-05-10T18:15:16.334Z,4.294036
2023-05-10T18:20:16.347Z,4.354501
2023-05-10T18:25:17.693Z,4.422038
2023-05-10T18:30:15.984Z,4.497248
2023-05-10T18:35:15.943Z,4.565157
2023-05-10T18:40:16.398Z,4.617767
2023-05-10T18:45:16.362Z,4.682964
2023-05-10T18:50:16.372Z,4.743093
2023-05-10T18:55:16.082Z,4.790101
2023-05-10T19:00:16.060Z,4.868176
2023-05-10T19:05:16.379Z,4.906327
2023-05-10T19:10:16.429Z,4.949032
2023-05-10T19:15:16.675Z,4.999084
2023-05-10T19:20:15.841Z,5.045629
2023-05-10T19:25:16.315Z,5.086824
2023-05-10T19:30:16.082Z,5.118967
2023-05-10T19:35:16.821Z,5.147241
2023-05-10T19:40:17.124Z,5.173135
2023-05-10T19:45:16.422Z,5.199071
2023-05-10T19:50:17.122Z,5.227505
2023-05-10T19:55:16.672Z,5.250258
2023-05-10T20:00:15.883Z,5.279414
2023-05-10T20:05:16.383Z,5.293613
2023-05-10T20:10:16.149Z,5.306403
2023-05-10T20:15:16.335Z,5.315109
2023-05-10T20:20:16.870Z,5.321461
2023-05-10T20:25:15.742Z,5.327607
2023-05-10T20:30:16.139Z,5.322107
2023-05-10T20:35:16.483Z,5.317902
2023-05-10T20:40:16.702Z,5.305894
2023-05-10T20:45:16.108Z,5.290271
2023-05-10T20:50:15.982Z,5.279767
2023-05-10T20:55:16.042Z,5.271132
2023-05-10T21:00:16.044Z,5.249653
2023-05-10T21:05:15.886Z,5.235190
2023-05-10T21:10:17.153Z,5.209441
2023-05-10T21:15:16.566Z,5.179561
2023-05-10T21:20:16.457Z,5.149829
2023-05-10T21:25:16.276Z,5.111102
2023-05-10T21:30:16.858Z,5.072602
2023-05-10T21:35:16.644Z,5.031661
2023-05-10T21:40:17.365Z,4.993676
2023-05-10T21:45:15.821Z,4.775087
2023-05-10T21:50:17.161Z,4.862135
2023-05-10T21:55:15.668Z,4.724790
2023-05-10T22:00:16.944Z,4.634471
2023-05-10T22:05:15.888Z,4.644512
2023-05-10T22:10:16.792Z,4.674377
2023-05-10T22:15:16.157Z,4.443027
2023-05-10T22:20:18.541Z,4.474153
2023-05-10T22:25:16.080Z,4.399811
2023-05-10T22:30:16.927Z,4.482330
2023-05-10T22:35:16.744Z,4.366146
2023-05-10T22:40:15.899Z,4.311545
2023-05-10T22:45:16.755Z,4.197826
2023-05-10T22:50:16.412Z,4.106229
2023-05-10T22:55:16.877Z,4.025070
2023-05-10T23:00:16.338Z,3.946883
2023-05-10T23:05:15.791Z,3.868752
2023-05-10T23:10:16.383Z,3.777222
2023-05-10T23:15:16.035Z,3.704787
2023-05-10T23:20:16.719Z,3.617407
2023-05-10T23:25:16.440Z,3.527880
2023-05-10T23:30:16.015Z,3.439242
2023-05-10T23:35:16.613Z,3.351142
2023-05-10T23:40:15.880Z,3.271214
2023-05-10T23:45:17.286Z,3.185092
2023-05-10T23:50:16.820Z,3.097157
2023-05-10T23:55:16.008Z,3.010865
